createdAt,value
2017-10-07T04:52:47.447Z,4.00
2017-10-07T05:12:52.567Z,72.00
2017-10-07T06:34:30.464Z,5300.00
2017-10-07T07:12:48.365Z,8476.00
2017-10-07T07:18:11.189Z,9272.00
2017-10-07T07:23:29.889Z,12908.00
2017-10-07T07:36:35.551Z,15060.00
2017-10-07T07:42:34.931Z,15496.00
2017-10-07T07:45:30.266Z,14328.00
2017-10-07T07:46:30.111Z,14916.00
2017-10-07T07:49:54.008Z,18976.00
2017-10-07T07:50:51.672Z,19648.00
2017-10-07T07:51:51.389Z,19232.00
2017-10-07T07:57:56.776Z,17480.00
2017-10-07T07:58:57.293Z,18144.00
2017-10-07T07:59:57.176Z,18432.00
2017-10-07T08:00:57.108Z,19936.00
2017-10-07T08:04:43.342Z,22688.00
2017-10-07T08:05:53.271Z,19968.00
2017-10-07T08:07:38.494Z,16536.00
2017-10-07T08:08:38.886Z,15720.00
2017-10-07T08:09:38.323Z,15836.00
2017-10-07T08:10:49.389Z,16580.00
2017-10-07T08:11:38.787Z,16860.00
2017-10-07T08:12:38.168Z,16596.00
2017-10-07T08:15:32.460Z,16340.00
2017-10-07T08:16:31.805Z,15712.00
2017-10-07T08:17:32.458Z,15140.00
2017-10-07T08:22:56.868Z,18592.00
2017-10-07T08:24:06.956Z,20192.00
2017-10-07T08:25:50.327Z,22016.00
2017-10-07T08:26:49.252Z,21568.00
2017-10-07T08:28:43.219Z,19840.00
2017-10-07T08:29:43.585Z,20000.00
2017-10-07T08:31:37.373Z,21632.00
2017-10-07T08:32:44.205Z,22816.00
2017-10-07T08:34:30.489Z,26656.00
2017-10-07T08:35:30.357Z,29856.00
2017-10-07T08:36:31.346Z,33728.00
2017-10-07T08:37:30.298Z,34144.00
2017-10-07T08:38:30.240Z,30784.00
2017-10-07T08:39:30.212Z,24384.00
2017-10-07T08:40:29.663Z,20448.00
2017-10-07T08:41:30.044Z,18912.00
2017-10-07T08:42:29.661Z,19488.00
2017-10-07T08:43:30.044Z,20192.00
2017-10-07T08:44:30.339Z,19616.00
2017-10-07T08:45:29.464Z,19136.00
2017-10-07T08:46:30.385Z,19008.00
2017-10-07T08:47:30.384Z,19008.00
2017-10-07T08:48:29.426Z,19296.00
2017-10-07T08:49:29.816Z,19776.00
2017-10-07T08:50:29.057Z,21216.00
2017-10-07T08:51:28.794Z,23488.00
2017-10-07T08:52:28.782Z,23968.00
2017-10-07T08:53:28.823Z,22304.00
2017-10-07T08:54:28.757Z,19680.00
2017-10-07T08:55:28.673Z,18400.00
2017-10-07T08:56:28.589Z,19392.00
2017-10-07T08:57:28.591Z,21152.00
2017-10-07T08:58:28.627Z,23136.00
2017-10-07T08:59:28.668Z,24320.00
2017-10-07T09:00:28.448Z,25344.00
2017-10-07T09:01:28.460Z,35968.00
2017-10-07T09:02:28.563Z,37792.00
2017-10-07T09:03:28.287Z,50240.00
2017-10-07T09:04:28.388Z,50304.00
2017-10-07T09:05:28.295Z,26400.00
2017-10-07T09:06:28.286Z,34912.00
2017-10-07T09:07:28.226Z,69312.00
2017-10-07T09:08:28.190Z,28992.00
2017-10-07T09:09:28.147Z,35040.00
2017-10-07T09:10:28.074Z,32928.00
2017-10-07T09:11:27.983Z,29504.00
2017-10-07T09:12:27.980Z,28480.00
2017-10-07T09:13:27.964Z,26624.00
2017-10-07T09:14:27.937Z,26432.00
2017-10-07T09:15:27.909Z,29248.00
2017-10-07T09:16:27.846Z,30656.00
2017-10-07T09:17:27.774Z,26272.00
2017-10-07T09:18:27.805Z,22400.00
2017-10-07T09:19:27.778Z,18240.00
2017-10-07T09:20:27.658Z,16356.00
2017-10-07T09:21:27.740Z,15132.00
2017-10-07T09:22:27.885Z,14320.00
2017-10-07T09:23:27.620Z,14584.00
2017-10-07T09:24:27.586Z,14512.00
2017-10-07T09:25:27.561Z,14568.00
2017-10-07T09:26:27.602Z,18080.00
2017-10-07T09:27:27.461Z,19616.00
2017-10-07T09:28:27.430Z,18720.00
2017-10-07T09:29:27.476Z,17664.00
2017-10-07T09:30:27.310Z,18560.00
2017-10-07T09:31:27.306Z,21632.00
2017-10-07T09:32:27.233Z,24992.00
2017-10-07T09:33:27.324Z,25056.00
2017-10-07T09:34:27.146Z,24288.00
2017-10-07T09:35:27.308Z,25248.00
2017-10-07T09:38:46.289Z,32096.00
2017-10-07T09:39:45.926Z,33792.00
2017-10-07T09:40:46.352Z,34592.00
2017-10-07T09:41:45.836Z,36096.00
2017-10-07T09:42:46.356Z,38016.00
2017-10-07T09:43:45.760Z,40320.00
2017-10-07T09:44:45.866Z,42240.00
2017-10-07T09:45:45.693Z,46144.00
2017-10-07T09:46:45.146Z,56256.00
2017-10-07T09:47:45.818Z,41792.00
2017-10-07T09:48:45.062Z,46400.00
2017-10-07T09:49:46.356Z,44928.00
2017-10-07T09:50:45.000Z,36384.00
2017-10-07T09:51:46.366Z,38720.00
2017-10-07T09:52:44.913Z,34816.00
2017-10-07T09:53:45.242Z,36160.00
2017-10-07T09:54:44.957Z,33920.00
2017-10-07T09:55:44.679Z,35712.00
2017-10-07T10:01:00.925Z,59360.00
2017-10-07T10:02:02.393Z,39072.00
2017-10-07T10:03:01.371Z,37760.00
2017-10-07T11:24:43.691Z,36768.00
2017-10-07T11:25:44.335Z,39168.00
2017-10-07T11:26:44.668Z,40416.00
2017-10-07T11:30:09.545Z,31232.00
2017-10-07T11:31:06.084Z,27072.00
2017-10-07T11:32:06.488Z,21600.00
2017-10-07T11:33:05.540Z,18528.00
2017-10-07T11:34:07.021Z,16148.00
2017-10-07T11:37:44.808Z,14700.00
2017-10-07T11:40:27.988Z,16996.00
2017-10-07T11:41:27.933Z,17256.00
2017-10-07T11:42:28.706Z,17364.00
2017-10-07T11:43:28.389Z,18144.00
2017-10-07T11:44:27.472Z,19200.00
2017-10-07T11:45:27.818Z,20256.00
2017-10-07T11:46:28.696Z,21632.00
2017-10-07T11:47:27.203Z,22784.00
2017-10-07T11:48:38.203Z,23968.00
2017-10-07T11:53:23.194Z,29120.00
2017-10-07T11:54:21.439Z,29216.00
2017-10-07T11:55:22.486Z,28576.00
2017-10-07T11:56:20.829Z,27488.00
2017-10-07T11:57:20.819Z,26112.00
2017-10-07T11:58:20.800Z,24544.00
2017-10-07T11:59:21.612Z,22816.00
2017-10-07T12:02:06.358Z,18880.00
2017-10-07T12:03:01.759Z,17824.00
2017-10-07T12:04:02.192Z,16756.00
2017-10-07T12:05:02.150Z,15768.00
2017-10-07T12:06:02.638Z,14532.00
2017-10-07T12:07:02.871Z,13180.00
2017-10-07T12:08:02.334Z,12448.00
2017-10-07T12:09:02.307Z,12404.00
2017-10-07T12:10:01.474Z,12280.00
2017-10-07T12:11:02.848Z,12432.00
2017-10-07T12:12:01.340Z,12456.00
2017-10-07T12:13:02.845Z,12508.00
2017-10-07T12:14:01.124Z,12764.00
2017-10-07T12:15:04.912Z,13156.00
2017-10-07T12:16:00.792Z,13620.00
2017-10-07T12:17:00.761Z,14144.00
2017-10-07T12:18:00.727Z,14964.00
2017-10-07T12:19:00.703Z,15920.00
2017-10-07T12:20:00.780Z,17112.00
2017-10-07T12:21:00.581Z,18560.00
2017-10-07T12:22:00.702Z,19488.00
2017-10-07T12:23:00.640Z,20032.00
2017-10-07T12:24:00.792Z,20032.00
2017-10-07T12:25:00.672Z,19808.00
2017-10-07T12:26:00.486Z,19840.00
2017-10-07T12:27:00.353Z,20512.00
2017-10-07T12:28:00.391Z,21632.00
2017-10-07T12:29:00.468Z,22592.00
2017-10-07T12:30:00.398Z,23296.00
2017-10-07T12:31:00.380Z,23904.00
2017-10-07T12:32:00.302Z,24192.00
2017-10-07T12:33:00.188Z,24096.00
2017-10-07T12:34:00.113Z,23200.00
2017-10-07T12:37:28.555Z,21856.00
2017-10-07T12:38:24.363Z,22080.00
2017-10-07T12:39:23.332Z,22336.00
2017-10-07T12:40:23.906Z,22496.00
2017-10-07T12:41:23.846Z,22336.00
2017-10-07T12:42:23.503Z,21632.00
2017-10-07T12:43:23.182Z,20448.00
2017-10-07T12:44:23.900Z,19104.00
2017-10-07T12:45:23.113Z,18080.00
2017-10-07T12:46:23.089Z,17448.00
2017-10-07T12:47:23.519Z,17468.00
2017-10-07T12:48:23.511Z,17984.00
2017-10-07T12:49:23.843Z,18656.00
2017-10-07T12:50:23.434Z,19264.00
2017-10-07T12:51:22.862Z,20256.00
2017-10-07T12:52:22.830Z,21408.00
2017-10-07T12:53:22.733Z,22496.00
2017-10-07T12:54:22.518Z,22912.00
2017-10-07T12:55:22.325Z,23296.00
2017-10-07T12:56:22.528Z,23584.00
2017-10-07T12:57:22.362Z,23200.00
2017-10-07T12:58:22.411Z,22720.00
2017-10-07T12:59:22.294Z,22080.00
2017-10-07T13:00:22.131Z,21216.00
2017-10-07T13:01:22.158Z,20416.00
2017-10-07T13:02:22.035Z,19520.00
2017-10-07T13:03:21.967Z,18592.00
2017-10-07T13:04:21.975Z,17792.00
2017-10-07T13:05:21.974Z,16984.00
2017-10-07T13:06:21.929Z,16636.00
2017-10-07T13:07:21.937Z,16928.00
2017-10-07T13:08:21.820Z,18240.00
2017-10-07T13:09:21.841Z,19904.00
2017-10-07T13:10:21.767Z,21312.00
2017-10-07T13:11:21.742Z,22592.00
2017-10-07T13:12:21.812Z,23744.00
2017-10-07T13:13:21.690Z,24160.00
2017-10-07T13:14:21.581Z,24192.00
2017-10-07T13:15:21.562Z,23712.00
2017-10-07T13:16:21.527Z,22912.00
2017-10-07T13:17:21.527Z,21920.00
2017-10-07T13:18:21.512Z,20832.00
2017-10-07T13:19:21.396Z,19712.00
2017-10-07T13:20:21.368Z,18720.00
2017-10-07T13:21:21.391Z,18144.00
2017-10-07T13:22:21.345Z,17824.00
2017-10-07T13:23:21.291Z,17228.00
2017-10-07T13:24:21.366Z,16580.00
2017-10-07T13:25:21.164Z,15992.00
2017-10-07T13:26:21.163Z,15400.00
2017-10-07T13:27:21.069Z,14992.00
2017-10-07T13:28:21.060Z,14768.00
2017-10-07T13:29:21.054Z,14556.00
2017-10-07T13:30:21.068Z,14496.00
2017-10-07T13:31:20.999Z,15332.00
2017-10-07T13:32:21.010Z,15744.00
2017-10-07T13:33:20.840Z,15332.00
2017-10-07T13:34:21.035Z,14964.00
2017-10-07T13:35:20.836Z,14364.00
2017-10-07T13:36:20.774Z,13840.00
2017-10-07T13:37:20.806Z,13644.00
2017-10-07T13:38:20.758Z,13520.00
2017-10-07T13:39:20.617Z,13792.00
2017-10-07T13:40:20.705Z,14024.00
2017-10-07T13:41:20.626Z,13848.00
2017-10-07T13:42:20.605Z,13412.00
2017-10-07T13:43:20.571Z,12952.00
2017-10-07T13:44:20.491Z,12400.00
2017-10-07T13:45:20.464Z,11860.00
2017-10-07T13:46:20.406Z,11496.00
2017-10-07T13:47:20.371Z,10684.00
2017-10-07T13:48:20.399Z,9388.00
2017-10-07T13:49:20.251Z,9436.00
2017-10-07T13:50:20.235Z,9584.00
2017-10-07T13:51:20.242Z,9380.00
2017-10-07T13:52:20.165Z,9072.00
2017-10-07T13:53:20.228Z,8920.00
2017-10-07T13:54:20.076Z,9084.00
2017-10-07T13:55:20.100Z,9332.00
2017-10-07T13:56:20.014Z,9452.00
2017-10-07T13:57:20.026Z,9588.00
2017-10-07T13:58:19.921Z,9568.00
2017-10-07T13:59:19.902Z,8620.00
2017-10-07T14:00:19.916Z,8848.00
2017-10-07T14:01:19.791Z,9688.00
2017-10-07T14:02:19.855Z,9616.00
2017-10-07T14:03:19.764Z,9228.00
2017-10-07T14:04:19.668Z,9140.00
2017-10-07T14:05:19.699Z,8828.00
2017-10-07T14:06:19.634Z,8820.00
2017-10-07T14:07:19.560Z,10012.00
2017-10-07T14:08:19.575Z,11092.00
2017-10-07T14:09:19.505Z,10800.00
2017-10-07T14:10:19.521Z,9672.00
2017-10-07T14:11:19.454Z,8372.00
2017-10-07T14:12:19.429Z,8628.00
2017-10-07T14:13:19.443Z,8804.00
2017-10-07T14:14:19.359Z,7888.00
2017-10-07T14:15:19.376Z,7956.00
2017-10-07T14:16:19.278Z,9120.00
2017-10-07T14:17:19.351Z,9168.00
2017-10-07T14:18:19.143Z,8896.00
2017-10-07T14:19:19.933Z,9376.00
2017-10-07T14:20:19.172Z,9836.00
2017-10-07T14:21:19.073Z,10188.00
2017-10-07T14:22:19.014Z,10408.00
2017-10-07T14:23:19.019Z,10528.00
2017-10-07T14:24:18.951Z,9692.00
2017-10-07T14:25:19.035Z,8972.00
2017-10-07T14:26:18.858Z,9088.00
2017-10-07T14:27:18.859Z,9196.00
2017-10-07T14:28:18.874Z,9660.00
2017-10-07T14:29:18.767Z,9388.00
2017-10-07T14:30:18.739Z,8444.00
2017-10-07T14:31:18.663Z,7996.00
2017-10-07T14:32:18.736Z,7008.00
2017-10-07T14:33:18.591Z,6312.00
2017-10-07T14:34:18.617Z,6732.00
2017-10-07T14:35:18.507Z,7476.00
2017-10-07T14:36:18.612Z,7208.00
2017-10-07T14:37:18.443Z,7164.00
2017-10-07T14:38:18.529Z,7256.00
2017-10-07T14:39:18.735Z,7804.00
2017-10-07T14:40:18.771Z,8024.00
2017-10-07T14:41:18.380Z,7816.00
2017-10-07T14:42:18.262Z,7144.00
2017-10-07T14:43:18.298Z,6552.00
2017-10-07T14:44:18.257Z,6576.00
2017-10-07T14:45:21.364Z,6560.00
2017-10-07T14:49:40.522Z,5152.00
2017-10-07T14:50:37.810Z,5668.00
2017-10-07T14:51:37.780Z,6036.00
2017-10-07T14:52:38.247Z,6004.00
2017-10-07T14:53:38.089Z,6596.00
2017-10-07T14:54:37.667Z,6824.00
2017-10-07T14:55:37.706Z,6528.00
2017-10-07T14:56:38.021Z,6264.00
2017-10-07T14:57:53.958Z,5852.00
2017-10-07T14:58:38.729Z,5048.00
2017-10-07T14:59:37.979Z,4444.00
2017-10-07T15:05:47.875Z,6356.00
2017-10-07T15:06:45.025Z,6280.00
2017-10-07T15:07:44.467Z,6128.00
2017-10-07T15:08:44.981Z,6008.00
2017-10-07T15:09:46.007Z,5808.00
2017-10-07T15:10:45.662Z,5512.00
2017-10-07T15:11:45.670Z,5628.00
2017-10-07T15:12:45.655Z,5812.00
2017-10-07T15:13:44.738Z,5980.00
2017-10-07T15:14:45.317Z,6204.00
2017-10-07T15:15:44.724Z,6280.00
2017-10-07T15:16:45.125Z,6140.00
2017-10-07T15:17:44.133Z,5824.00
2017-10-07T15:18:45.623Z,5488.00
2017-10-07T15:19:44.568Z,5312.00
2017-10-07T15:20:43.997Z,5348.00
2017-10-07T15:21:44.494Z,5444.00
2017-10-07T15:22:45.518Z,5240.00
2017-10-07T15:23:44.362Z,4836.00
2017-10-07T15:24:44.338Z,4556.00
2017-10-07T15:25:43.816Z,4368.00
2017-10-07T15:26:45.349Z,4168.00
2017-10-07T15:27:43.729Z,3896.00
2017-10-07T15:28:43.471Z,3640.00
2017-10-07T15:29:43.324Z,3336.00
2017-10-07T15:30:43.173Z,3088.00
2017-10-07T15:31:43.131Z,2992.00
2017-10-07T15:32:43.038Z,3024.00
2017-10-07T15:33:42.999Z,2940.00
2017-10-07T15:34:42.958Z,2884.00
2017-10-07T15:35:42.934Z,2868.00
2017-10-07T15:36:42.959Z,2764.00
2017-10-07T15:37:42.863Z,2548.00
2017-10-07T15:38:42.860Z,2296.00
2017-10-07T15:39:42.848Z,2064.00
2017-10-07T15:40:42.753Z,1876.00
2017-10-07T15:41:42.697Z,1720.00
2017-10-07T15:42:42.665Z,1572.00
2017-10-07T15:43:42.703Z,1436.00
2017-10-07T15:44:42.604Z,1324.00
2017-10-07T15:45:42.545Z,1240.00
2017-10-07T15:46:42.520Z,1204.00
2017-10-07T15:47:42.514Z,1184.00
2017-10-07T15:48:42.427Z,1172.00
2017-10-07T15:49:42.409Z,1156.00
2017-10-07T15:50:42.381Z,1164.00
2017-10-07T15:51:42.325Z,1192.00
2017-10-07T15:52:42.374Z,1216.00
2017-10-07T15:53:42.295Z,1172.00
2017-10-07T15:54:42.210Z,1112.00
2017-10-07T15:55:42.111Z,1048.00
2017-10-07T15:56:42.091Z,1000.00
2017-10-07T15:57:42.116Z,984.00
2017-10-07T15:58:42.031Z,1004.00
2017-10-07T15:59:42.061Z,1072.00
2017-10-07T16:00:41.930Z,1140.00
2017-10-07T16:01:41.934Z,1168.00
2017-10-07T16:02:41.907Z,1132.00
2017-10-07T16:03:41.842Z,1044.00
2017-10-07T16:04:41.811Z,980.00
2017-10-07T16:05:41.761Z,952.00
2017-10-07T16:06:41.728Z,900.00
2017-10-07T16:07:41.773Z,780.00
2017-10-07T16:08:41.625Z,664.00
2017-10-07T16:09:41.708Z,608.00
2017-10-07T16:10:41.604Z,600.00
2017-10-07T16:11:41.671Z,592.00
2017-10-07T16:12:41.645Z,556.00
2017-10-07T16:13:41.429Z,544.00
2017-10-07T16:14:41.496Z,560.00
2017-10-07T16:15:41.416Z,584.00
2017-10-07T16:16:41.327Z,612.00
2017-10-07T16:17:41.362Z,632.00
2017-10-07T16:18:41.227Z,624.00
2017-10-07T16:19:41.278Z,584.00
2017-10-07T16:20:41.136Z,516.00
2017-10-07T16:21:41.336Z,456.00
2017-10-07T16:22:41.254Z,416.00
2017-10-07T16:23:41.063Z,376.00
2017-10-07T16:24:41.089Z,336.00
2017-10-07T16:25:40.995Z,288.00
2017-10-07T16:26:40.947Z,240.00
2017-10-07T16:27:40.901Z,200.00
2017-10-07T16:28:40.938Z,168.00
2017-10-07T16:29:41.008Z,144.00
2017-10-07T16:30:40.724Z,132.00
2017-10-07T16:31:40.700Z,132.00
2017-10-07T16:32:40.673Z,128.00
2017-10-07T16:33:40.643Z,124.00
2017-10-07T16:34:40.646Z,116.00
2017-10-07T16:35:40.622Z,104.00
2017-10-07T16:36:40.580Z,88.00
2017-10-07T16:37:40.492Z,76.00
2017-10-07T16:38:40.420Z,72.00
2017-10-07T16:39:40.358Z,72.00
2017-10-07T16:40:40.461Z,68.00
2017-10-07T16:41:40.344Z,60.00
2017-10-07T16:42:40.261Z,56.00
2017-10-07T16:43:40.282Z,48.00
2017-10-07T16:44:40.290Z,44.00
2017-10-07T16:45:40.164Z,40.00
2017-10-07T16:46:40.206Z,36.00
2017-10-07T16:47:40.296Z,32.00
2017-10-07T16:48:40.058Z,28.00
2017-10-07T16:49:40.064Z,24.00
2017-10-07T16:50:39.934Z,20.00
2017-10-07T16:51:39.942Z,16.00
2017-10-07T16:52:39.861Z,12.00
2017-10-07T16:53:39.936Z,12.00
2017-10-07T16:54:39.770Z,8.00
2017-10-07T16:55:39.816Z,8.00
2017-10-07T16:56:39.731Z,4.00
2017-10-07T16:57:39.698Z,4.00
2017-10-07T16:58:39.598Z,4.00
2017-10-07T16:59:39.818Z,4.00
2017-10-07T17:00:39.690Z,4.00
2017-10-07T17:01:39.532Z,0.00
2017-10-07T17:02:39.442Z,0.00
2017-10-07T17:03:39.543Z,0.00
2017-10-07T17:04:39.396Z,0.00
2017-10-07T17:05:39.535Z,0.00
2017-10-07T17:06:39.363Z,0.00
2017-10-07T17:07:39.483Z,0.00
2017-10-07T17:08:39.254Z,0.00
2017-10-07T17:09:39.233Z,0.00
2017-10-07T17:10:39.264Z,0.00
2017-10-07T17:11:39.151Z,0.00
2017-10-07T17:12:39.052Z,0.00
2017-10-07T17:13:39.032Z,0.00
2017-10-07T17:14:39.027Z,0.00
2017-10-07T17:15:38.938Z,0.00
2017-10-07T17:16:38.976Z,0.00
2017-10-07T17:17:39.008Z,0.00
2017-10-07T17:18:38.781Z,0.00
2017-10-07T17:19:38.827Z,0.00
2017-10-07T17:20:38.831Z,0.00
2017-10-07T17:21:38.858Z,0.00
2017-10-07T17:22:38.689Z,0.00
2017-10-07T17:23:38.690Z,0.00
2017-10-07T17:24:38.541Z,0.00
2017-10-07T17:25:38.517Z,0.00
2017-10-07T17:26:38.524Z,0.00
2017-10-07T17:27:38.568Z,0.00
2017-10-07T17:28:38.544Z,0.00
2017-10-07T17:29:38.346Z,0.00
2017-10-07T17:30:38.359Z,0.00
2017-10-07T17:31:38.382Z,0.00
2017-10-07T17:32:38.203Z,0.00
2017-10-07T17:33:38.194Z,0.00
2017-10-07T17:34:38.146Z,0.00
2017-10-07T17:35:38.103Z,0.00
2017-10-07T17:36:38.092Z,0.00
2017-10-07T17:37:37.996Z,0.00
2017-10-07T17:38:38.116Z,0.00
2017-10-07T17:39:37.992Z,0.00
2017-10-07T17:40:37.953Z,0.00
2017-10-07T17:41:37.866Z,0.00
2017-10-07T17:42:37.874Z,0.00
2017-10-07T17:43:37.787Z,0.00
2017-10-07T17:44:37.825Z,0.00
2017-10-07T17:45:37.732Z,0.00
2017-10-07T17:46:37.661Z,0.00
2017-10-07T17:47:37.615Z,0.00
2017-10-07T17:48:37.589Z,0.00
2017-10-07T17:49:37.617Z,0.00
2017-10-07T17:50:37.592Z,0.00
2017-10-07T17:51:37.467Z,0.00
2017-10-07T17:52:37.401Z,0.00
2017-10-07T17:53:37.492Z,0.00
2017-10-07T17:54:37.339Z,0.00
2017-10-07T17:55:37.275Z,0.00
2017-10-07T17:56:37.242Z,0.00
2017-10-07T17:57:37.186Z,0.00
2017-10-07T17:58:37.142Z,0.00
2017-10-07T17:59:37.138Z,0.00
2017-10-07T18:00:37.101Z,0.00
2017-10-07T18:01:37.052Z,0.00
2017-10-07T18:02:37.067Z,0.00
2017-10-07T18:03:36.954Z,0.00
2017-10-07T18:04:36.969Z,0.00
2017-10-07T18:05:36.869Z,0.00
2017-10-07T18:06:36.837Z,0.00
2017-10-07T18:07:36.820Z,0.00
2017-10-07T18:08:36.922Z,0.00
2017-10-07T18:09:36.711Z,0.00
2017-10-07T18:10:36.725Z,0.00
2017-10-07T18:11:36.627Z,0.00
2017-10-07T18:12:36.608Z,0.00
2017-10-07T18:13:36.544Z,0.00
2017-10-07T18:14:36.559Z,0.00
2017-10-07T18:15:36.545Z,0.00
2017-10-07T18:16:36.466Z,0.00
2017-10-07T18:17:36.427Z,0.00
2017-10-07T18:18:36.365Z,0.00
2017-10-07T18:19:36.352Z,0.00
2017-10-07T18:20:36.292Z,0.00
2017-10-07T18:21:36.230Z,0.00
2017-10-07T18:22:36.178Z,0.00
2017-10-07T18:23:36.429Z,0.00
2017-10-07T18:24:36.271Z,0.00
2017-10-07T18:25:36.140Z,0.00
2017-10-07T18:26:36.059Z,0.00
2017-10-07T18:27:36.112Z,0.00
2017-10-07T18:28:35.996Z,0.00
2017-10-07T18:29:36.147Z,0.00
2017-10-07T18:30:35.854Z,0.00
2017-10-07T18:31:35.829Z,0.00
2017-10-07T18:32:35.953Z,0.00
2017-10-07T18:33:35.756Z,0.00
2017-10-07T18:34:35.776Z,0.00
2017-10-07T18:35:35.655Z,0.00
2017-10-07T18:36:37.268Z,0.00
2017-10-07T18:37:35.583Z,0.00
2017-10-07T18:38:35.534Z,0.00
2017-10-07T18:39:35.552Z,0.00
2017-10-07T18:40:35.527Z,0.00
2017-10-07T18:41:35.522Z,0.00
2017-10-07T18:42:35.372Z,0.00
2017-10-07T18:43:37.298Z,0.00
2017-10-07T18:44:35.275Z,0.00
2017-10-07T18:45:35.290Z,0.00
2017-10-07T18:46:35.393Z,0.00
2017-10-07T18:47:35.232Z,0.00
2017-10-07T18:48:35.207Z,0.00
2017-10-07T18:49:35.145Z,0.00
2017-10-07T18:50:35.207Z,0.00
2017-10-07T18:51:35.031Z,0.00
2017-10-07T18:52:34.953Z,0.00
2017-10-07T18:53:35.066Z,0.00
2017-10-07T18:54:36.878Z,0.00
2017-10-07T18:55:34.908Z,0.00
2017-10-07T18:56:34.824Z,0.00
2017-10-07T18:57:34.763Z,0.00
2017-10-07T18:58:34.721Z,0.00
2017-10-07T18:59:34.685Z,0.00
2017-10-07T19:00:34.660Z,0.00
2017-10-07T19:01:34.613Z,0.00
2017-10-07T19:02:34.605Z,0.00
2017-10-07T19:03:34.541Z,0.00
2017-10-07T19:04:34.513Z,0.00
2017-10-07T19:05:34.516Z,0.00
2017-10-07T19:06:34.457Z,0.00
2017-10-07T19:07:34.366Z,0.00
2017-10-07T19:08:34.378Z,0.00
2017-10-07T19:09:34.278Z,0.00
2017-10-07T19:10:34.289Z,0.00
2017-10-07T19:11:34.281Z,0.00
2017-10-07T19:12:34.187Z,0.00
2017-10-07T19:13:34.182Z,0.00
2017-10-07T19:14:34.116Z,0.00
2017-10-07T19:15:34.062Z,0.00
2017-10-07T19:16:34.086Z,0.00
2017-10-07T19:17:34.004Z,0.00
2017-10-07T19:18:33.979Z,0.00
2017-10-07T19:19:33.859Z,0.00
2017-10-07T19:20:33.890Z,0.00
2017-10-07T19:21:33.813Z,0.00
2017-10-07T19:22:33.770Z,0.00
2017-10-07T19:23:33.715Z,0.00
2017-10-07T19:24:33.671Z,0.00
2017-10-07T19:25:33.637Z,0.00
2017-10-07T19:26:33.601Z,0.00
2017-10-07T19:27:33.553Z,0.00
2017-10-07T19:28:33.560Z,0.00
2017-10-07T19:29:33.524Z,0.00
2017-10-07T19:30:33.434Z,0.00
2017-10-07T19:31:33.431Z,0.00
2017-10-07T19:32:33.428Z,0.00
2017-10-07T19:33:33.429Z,0.00
2017-10-07T19:34:33.371Z,0.00
2017-10-07T19:35:33.300Z,0.00
2017-10-07T19:36:33.280Z,0.00
2017-10-07T19:37:33.189Z,0.00
2017-10-07T19:38:33.183Z,0.00
2017-10-07T19:39:33.160Z,0.00
2017-10-07T19:40:33.113Z,0.00
2017-10-07T19:41:33.190Z,0.00
2017-10-07T19:42:33.119Z,0.00
2017-10-07T19:43:33.111Z,0.00
2017-10-07T19:44:33.032Z,0.00
2017-10-07T19:45:33.104Z,0.00
2017-10-07T19:46:33.300Z,0.00
2017-10-07T19:50:58.060Z,0.00
2017-10-07T20:17:40.612Z,0.00
2017-10-07T20:18:37.609Z,0.00
2017-10-07T20:19:37.295Z,0.00
